createdAt,value
2022-08-12T00:02:01.995Z,101766.31
2022-08-12T00:04:24.200Z,101772.09
2022-08-12T00:06:47.363Z,101773.19
2022-08-12T00:09:08.439Z,101769.03
2022-08-12T00:11:30.555Z,101765.63
2022-08-12T00:13:51.578Z,101768.31
2022-08-12T00:16:12.428Z,101777.31
2022-08-12T00:18:33.378Z,101770.41
2022-08-12T00:20:55.747Z,101766.84
2022-08-12T00:23:17.161Z,101763.34
2022-08-12T00:26:01.381Z,101761.34
2022-08-12T00:28:20.715Z,101761.63
2022-08-12T00:30:41.926Z,101769.78
2022-08-12T00:33:04.097Z,101771.47
2022-08-12T00:35:36.570Z,101780.03
2022-08-12T00:37:58.036Z,101786.88
2022-08-12T00:40:19.134Z,101782.84
2022-08-12T00:42:23.357Z,101778.59
2022-08-12T00:44:30.018Z,101778.59
2022-08-12T00:46:45.807Z,101772.50
2022-08-12T00:48:50.221Z,101778.97
2022-08-12T00:50:57.208Z,101774.81
2022-08-12T00:53:03.281Z,101766.19
2022-08-12T00:55:07.715Z,101767.16
2022-08-12T00:57:14.919Z,101766.28
2022-08-12T00:59:18.662Z,101761.06
2022-08-12T01:01:24.950Z,101761.91
2022-08-12T01:03:51.953Z,101766.41
2022-08-12T01:06:17.234Z,101755.69
2022-08-12T01:08:43.407Z,101752.28
2022-08-12T01:11:05.692Z,101751.53
2022-08-12T01:13:19.325Z,101754.47
2022-08-12T01:15:24.030Z,101747.66
2022-08-12T01:17:30.070Z,101741.69
2022-08-12T01:19:35.022Z,101747.91
2022-08-12T01:22:06.254Z,101751.81
2022-08-12T01:24:28.149Z,101743.03
2022-08-12T01:26:39.817Z,101737.31
2022-08-12T01:28:45.994Z,101736.94
2022-08-12T01:30:51.797Z,101740.81
2022-08-12T01:33:00.643Z,101739.22
2022-08-12T01:35:07.494Z,101738.66
2022-08-12T01:37:11.727Z,101731.44
2022-08-12T01:39:18.342Z,101730.47
2022-08-12T01:41:25.653Z,101739.34
2022-08-12T01:43:32.062Z,101734.13
2022-08-12T01:45:43.151Z,101741.31
2022-08-12T01:47:58.165Z,101728.91
2022-08-12T01:50:19.197Z,101728.06
2022-08-12T01:52:36.180Z,101729.84
2022-08-12T01:54:44.609Z,101728.19
2022-08-12T01:56:53.169Z,101728.91
2022-08-12T01:59:20.553Z,101725.50
2022-08-12T02:01:30.709Z,101728.53
2022-08-12T02:04:07.659Z,101727.41
2022-08-12T02:06:38.938Z,101727.84
2022-08-12T02:09:05.815Z,101727.13
2022-08-12T02:11:21.658Z,101726.50
2022-08-12T02:13:48.749Z,101728.34
2022-08-12T02:16:00.307Z,101725.78
2022-08-12T02:18:13.668Z,101735.63
2022-08-12T02:20:24.418Z,101734.91
2022-08-12T02:22:48.799Z,101725.88
2022-08-12T02:24:54.701Z,101722.25
2022-08-12T02:26:59.428Z,101720.31
2022-08-12T02:29:03.981Z,101722.00
2022-08-12T02:31:11.883Z,101721.16
2022-08-12T02:33:17.544Z,101720.53
2022-08-12T02:35:23.290Z,101723.44
2022-08-12T02:37:30.478Z,101724.66
2022-08-12T02:39:35.651Z,101719.56
2022-08-12T02:41:44.100Z,101715.16
2022-08-12T02:43:52.827Z,101715.28
2022-08-12T02:46:01.779Z,101718.09
2022-08-12T02:48:09.431Z,101718.31
2022-08-12T02:50:16.310Z,101723.81
2022-08-12T02:52:21.067Z,101719.41
2022-08-12T02:54:26.467Z,101714.19
2022-08-12T02:56:31.234Z,101711.63
2022-08-12T02:58:41.424Z,101710.88
2022-08-12T03:00:49.849Z,101713.56
2022-08-12T03:02:56.262Z,101708.31
2022-08-12T03:05:06.464Z,101708.19
2022-08-12T03:07:13.065Z,101711.00
2022-08-12T03:09:18.857Z,101709.28
2022-08-12T03:11:27.478Z,101706.84
2022-08-12T03:13:36.561Z,101704.41
2022-08-12T03:15:40.858Z,101706.59
2022-08-12T03:18:24.797Z,101706.06
2022-08-12T03:20:28.062Z,101700.09
2022-08-12T03:22:35.328Z,101703.88
2022-08-12T03:24:42.525Z,101699.47
2022-08-12T03:26:48.888Z,101692.41
2022-08-12T03:28:54.435Z,101690.69
2022-08-12T03:31:02.330Z,101685.22
2022-08-12T03:33:07.219Z,101689.88
2022-08-12T03:35:40.384Z,101687.31
2022-08-12T03:37:43.015Z,101687.31
2022-08-12T03:39:47.222Z,101684.63
2022-08-12T03:41:57.991Z,101682.91
2022-08-12T03:44:25.750Z,101687.50
2022-08-12T03:46:52.388Z,101688.63
2022-08-12T03:49:14.159Z,101678.13
2022-08-12T03:51:35.087Z,101677.28
2022-08-12T03:53:58.096Z,101669.38
2022-08-12T03:56:19.170Z,101672.19
2022-08-12T03:58:40.905Z,101669.50
2022-08-12T04:00:46.284Z,101668.03
2022-08-12T04:02:59.294Z,101671.78
2022-08-12T04:05:03.993Z,101669.44
2022-08-12T04:07:10.072Z,101661.66
2022-08-12T04:09:16.420Z,101665.41
2022-08-12T04:11:46.840Z,101667.38
2022-08-12T04:13:51.868Z,101666.50
2022-08-12T04:15:55.546Z,101659.47
2022-08-12T04:18:07.068Z,101662.00
2022-08-12T04:20:13.721Z,101654.09
2022-08-12T04:22:17.533Z,101659.56
2022-08-12T04:24:25.062Z,101652.63
2022-08-12T04:26:29.221Z,101653.56
2022-08-12T04:28:32.773Z,101668.84
2022-08-12T04:30:38.095Z,101669.09
2022-08-12T04:32:44.419Z,101669.31
2022-08-12T04:34:48.642Z,101667.72
2022-08-12T04:36:54.109Z,101663.34
2022-08-12T04:38:59.804Z,101670.63
2022-08-12T04:41:06.052Z,101667.09
2022-08-12T04:44:00.724Z,101661.00
2022-08-12T04:45:38.483Z,101668.28
2022-08-12T04:47:42.260Z,101668.16
2022-08-12T04:49:46.978Z,101663.69
2022-08-12T04:51:57.611Z,101660.13
2022-08-12T04:54:03.801Z,101666.34
2022-08-12T04:56:11.147Z,101659.28
2022-08-12T04:58:15.066Z,101660.25
2022-08-12T05:00:18.746Z,101662.94
2022-08-12T05:02:22.975Z,101661.25
2022-08-12T05:04:28.185Z,101664.25
2022-08-12T05:06:31.519Z,101658.06
2022-08-12T05:08:37.030Z,101660.72
2022-08-12T05:10:40.579Z,101656.22
2022-08-12T05:12:49.074Z,101664.00
2022-08-12T05:14:52.452Z,101664.88
2022-08-12T05:16:55.706Z,101666.78
2022-08-12T05:18:59.753Z,101662.63
2022-08-12T05:21:03.353Z,101661.91
2022-08-12T05:23:12.438Z,101659.34
2022-08-12T05:25:18.461Z,101662.88
2022-08-12T05:27:22.760Z,101661.91
2022-08-12T05:30:06.534Z,101660.97
2022-08-12T05:31:56.055Z,101661.69
2022-08-12T05:33:59.339Z,101668.38
2022-08-12T05:36:02.765Z,101677.06
2022-08-12T05:38:23.501Z,101670.50
2022-08-12T05:40:26.854Z,101670.41
2022-08-12T05:42:32.531Z,101663.84
2022-08-12T05:44:39.407Z,101670.78
2022-08-12T05:46:42.852Z,101668.72
2022-08-12T05:48:46.573Z,101668.44
2022-08-12T05:50:50.410Z,101671.63
2022-08-12T05:52:54.174Z,101664.09
2022-08-12T05:54:58.076Z,101661.94
2022-08-12T05:57:01.466Z,101666.97
2022-08-12T05:59:07.816Z,101666.59
2022-08-12T06:02:11.981Z,101663.44
2022-08-12T06:03:35.935Z,101662.28
2022-08-12T06:05:52.694Z,101662.03
2022-08-12T06:08:02.880Z,101669.38
2022-08-12T06:10:07.306Z,101665.97
2022-08-12T06:12:11.668Z,101664.28
2022-08-12T06:14:14.911Z,101662.59
2022-08-12T06:16:23.710Z,101661.88
2022-08-12T06:18:29.882Z,101657.38
2022-08-12T06:20:33.899Z,101649.50
2022-08-12T06:22:37.667Z,101653.81
2022-08-12T06:24:41.099Z,101645.41
2022-08-12T06:26:44.613Z,101648.38
2022-08-12T06:28:51.097Z,101641.44
2022-08-12T06:31:24.285Z,101643.88
2022-08-12T06:33:22.338Z,101644.78
2022-08-12T06:35:47.956Z,101645.06
2022-08-12T06:37:56.769Z,101639.03
2022-08-12T06:40:03.877Z,101644.59
2022-08-12T06:42:33.685Z,101638.91
2022-08-12T06:44:37.059Z,101637.22
2022-08-12T06:46:40.285Z,101642.16
2022-08-12T06:48:45.074Z,101642.41
2022-08-12T06:50:49.345Z,101633.78
2022-08-12T06:52:53.150Z,101638.19
2022-08-12T06:54:58.646Z,101643.59
2022-08-12T06:57:04.790Z,101634.44
2022-08-12T06:59:08.943Z,101629.59
2022-08-12T07:01:13.129Z,101632.44
2022-08-12T07:03:27.863Z,101636.78
2022-08-12T07:05:33.247Z,101627.16
2022-08-12T07:07:39.012Z,101632.22
2022-08-12T07:10:06.818Z,101632.72
2022-08-12T07:12:19.948Z,101636.75
2022-08-12T07:14:24.620Z,101636.28
2022-08-12T07:16:48.106Z,101636.53
2022-08-12T07:18:53.851Z,101640.13
2022-08-12T07:21:01.167Z,101640.78
2022-08-12T07:23:06.902Z,101644.66
2022-08-12T07:25:28.295Z,101643.78
2022-08-12T07:27:31.582Z,101642.47
2022-08-12T07:30:03.764Z,101635.72
2022-08-12T07:31:59.858Z,101639.00
2022-08-12T07:34:03.207Z,101643.13
2022-08-12T07:36:10.803Z,101632.75
2022-08-12T07:38:28.816Z,101642.94
2022-08-12T07:40:33.358Z,101645.28
2022-08-12T07:42:36.885Z,101644.66
2022-08-12T07:44:40.340Z,101649.16
2022-08-12T07:46:44.655Z,101647.50
2022-08-12T07:48:52.157Z,101638.63
2022-08-12T07:50:56.011Z,101637.41
2022-08-12T07:53:01.243Z,101637.94
2022-08-12T07:55:05.556Z,101638.91
2022-08-12T07:57:12.546Z,101639.88
2022-08-12T07:59:16.082Z,101642.34
2022-08-12T08:01:21.850Z,101634.81
2022-08-12T08:03:26.052Z,101636.66
2022-08-12T08:05:31.845Z,101629.59
2022-08-12T08:07:35.268Z,101625.34
2022-08-12T08:09:40.123Z,101624.59
2022-08-12T08:12:01.132Z,101626.00
2022-08-12T08:14:06.275Z,101631.59
2022-08-12T08:16:10.282Z,101634.38
2022-08-12T08:18:26.435Z,101632.22
2022-08-12T08:20:34.011Z,101631.91
2022-08-12T08:22:41.921Z,101631.91
2022-08-12T08:24:47.260Z,101636.63
2022-08-12T08:26:52.295Z,101635.41
2022-08-12T08:28:55.791Z,101647.00
2022-08-12T08:30:59.193Z,101639.75
2022-08-12T08:33:02.561Z,101631.88
2022-08-12T08:35:14.799Z,101641.44
2022-08-12T08:37:21.369Z,101641.78
2022-08-12T08:39:28.315Z,101643.19
2022-08-12T08:42:15.533Z,101641.41
2022-08-12T08:44:13.974Z,101627.56
2022-08-12T08:46:17.292Z,101636.97
2022-08-12T08:48:22.305Z,101638.22
2022-08-12T08:50:25.620Z,101642.94
2022-08-12T08:52:39.636Z,101633.22
2022-08-12T08:54:44.283Z,101631.34
2022-08-12T08:56:50.452Z,101632.97
2022-08-12T08:58:54.199Z,101632.59
2022-08-12T09:00:57.589Z,101634.00
2022-08-12T09:03:04.538Z,101626.06
2022-08-12T09:05:43.106Z,101627.22
2022-08-12T09:08:09.196Z,101631.53
2022-08-12T09:13:02.498Z,101629.41
2022-08-12T09:15:17.099Z,101625.63
2022-08-12T09:17:25.372Z,101633.28
2022-08-12T09:19:29.607Z,101628.13
2022-08-12T09:26:28.330Z,101622.28
2022-08-12T09:28:37.242Z,101612.88
2022-08-12T09:30:45.595Z,101622.28
2022-08-12T09:33:04.398Z,101615.28
2022-08-12T09:35:22.075Z,101617.59
2022-08-12T09:37:26.907Z,101626.09
2022-08-12T09:40:02.131Z,101615.72
2022-08-12T09:42:39.128Z,101621.63
2022-08-12T09:45:03.500Z,101619.19
2022-08-12T09:47:15.321Z,101616.22
2022-08-12T09:49:18.981Z,101612.88
2022-08-12T09:51:37.435Z,101621.00
2022-08-12T09:53:42.232Z,101619.94
2022-08-12T09:55:59.621Z,101614.78
2022-08-12T09:58:56.855Z,101613.47
2022-08-12T10:00:52.069Z,101620.97
2022-08-12T10:03:02.359Z,101611.28
2022-08-12T10:05:13.717Z,101605.00
2022-08-12T10:07:24.809Z,101608.31
2022-08-12T10:09:58.658Z,101602.97
2022-08-12T10:12:12.829Z,101608.09
2022-08-12T10:14:18.930Z,101605.44
2022-08-12T10:16:43.951Z,101598.03
2022-08-12T10:18:51.529Z,101605.16
2022-08-12T10:20:57.319Z,101601.91
2022-08-12T10:23:01.942Z,101603.03
2022-08-12T10:26:18.478Z,101601.41
2022-08-12T10:28:16.219Z,101596.69
2022-08-12T10:30:39.791Z,101600.25
2022-08-12T10:32:58.661Z,101597.53
2022-08-12T10:35:02.665Z,101601.31
2022-08-12T10:37:22.563Z,101599.78
2022-08-12T10:40:06.887Z,101597.09
2022-08-12T10:42:14.809Z,101590.50
2022-08-12T10:44:19.532Z,101596.59
2022-08-12T10:46:24.332Z,101588.69
2022-08-12T10:48:36.627Z,101580.97
2022-08-12T10:51:01.160Z,101584.84
2022-08-12T10:53:10.219Z,101585.47
2022-08-12T10:55:13.907Z,101594.41
2022-08-12T10:58:15.402Z,101581.91
2022-08-12T11:00:33.936Z,101583.63
2022-08-12T11:04:25.353Z,101583.31
2022-08-12T11:04:48.823Z,101580.28
2022-08-12T11:07:06.815Z,101573.53
2022-08-12T11:09:41.719Z,101567.91
2022-08-12T11:12:36.017Z,101569.56
2022-08-12T11:14:47.871Z,101577.72
2022-08-12T11:16:33.002Z,101566.22
2022-08-12T11:18:37.128Z,101569.59
2022-08-12T11:20:42.938Z,101564.50
2022-08-12T11:22:58.517Z,101562.53
2022-08-12T11:25:10.411Z,101564.72
2022-08-12T11:27:15.520Z,101560.66
2022-08-12T11:29:22.833Z,101558.13
2022-08-12T11:31:26.666Z,101560.31
2022-08-12T11:34:05.952Z,101553.06
2022-08-12T11:36:16.309Z,101557.28
2022-08-12T11:38:21.751Z,101553.34
2022-08-12T11:40:26.939Z,101555.69
2022-08-12T11:42:42.463Z,101558.34
2022-08-12T11:44:50.143Z,101553.09
2022-08-12T11:46:55.382Z,101562.88
2022-08-12T11:48:58.848Z,101553.78
2022-08-12T11:51:02.399Z,101553.19
2022-08-12T11:53:56.519Z,101553.31
2022-08-12T11:55:33.249Z,101561.13
2022-08-12T11:58:33.933Z,101551.50
2022-08-12T12:02:37.750Z,101551.41
2022-08-12T12:04:41.474Z,101547.84
2022-08-12T12:06:49.798Z,101538.91
2022-08-12T12:09:00.563Z,101543.81
2022-08-12T12:11:09.449Z,101542.16
2022-08-12T12:13:23.207Z,101541.69
2022-08-12T12:15:40.658Z,101531.47
2022-08-12T12:17:45.008Z,101531.66
2022-08-12T12:19:48.832Z,101520.34
2022-08-12T12:21:52.563Z,101530.25
2022-08-12T12:24:00.715Z,101532.16
2022-08-12T12:26:07.773Z,101535.63
2022-08-12T12:28:36.616Z,101534.41
2022-08-12T12:30:37.370Z,101524.28
2022-08-12T12:32:41.318Z,101524.94
2022-08-12T12:35:44.476Z,101525.63
2022-08-12T12:38:04.463Z,101520.56
2022-08-12T12:39:55.215Z,101517.19
2022-08-12T12:42:42.553Z,101515.00
2022-08-12T12:44:25.913Z,101516.53
2022-08-12T12:46:44.675Z,101522.19
2022-08-12T12:48:48.551Z,101509.00
2022-08-12T12:51:09.316Z,101506.69
2022-08-12T12:54:06.305Z,101515.09
2022-08-12T12:55:46.564Z,101515.41
2022-08-12T12:58:00.009Z,101509.22
2022-08-12T13:00:21.715Z,101503.31
2022-08-12T13:02:42.355Z,101508.06
2022-08-12T13:04:46.837Z,101500.13
2022-08-12T13:06:52.366Z,101506.34
2022-08-12T13:08:56.778Z,101512.94
2022-08-12T13:11:09.411Z,101503.66
2022-08-12T13:14:07.993Z,101508.72
2022-08-12T13:15:43.547Z,101497.06
2022-08-12T13:18:02.108Z,101501.09
2022-08-12T13:20:08.123Z,101495.88
2022-08-12T13:22:20.670Z,101490.63
2022-08-12T13:24:24.925Z,101495.53
2022-08-12T13:26:40.371Z,101499.25
2022-08-12T13:28:49.689Z,101498.25
2022-08-12T13:31:00.347Z,101495.06
2022-08-12T13:33:04.358Z,101500.94
2022-08-12T13:35:19.804Z,101494.53
2022-08-12T13:37:43.928Z,101490.31
2022-08-12T13:39:57.771Z,101496.88
2022-08-12T13:42:02.799Z,101494.19
2022-08-12T13:44:11.934Z,101491.13
2022-08-12T13:46:16.570Z,101494.00
2022-08-12T13:48:20.214Z,101486.94
2022-08-12T13:50:30.075Z,101484.03
2022-08-12T13:52:35.370Z,101482.31
2022-08-12T13:54:38.993Z,101479.94
2022-08-12T13:56:42.605Z,101481.63
2022-08-12T13:58:54.967Z,101480.16
2022-08-12T14:01:06.510Z,101484.22
2022-08-12T14:03:14.817Z,101476.44
2022-08-12T14:05:27.540Z,101486.06
2022-08-12T14:07:56.366Z,101477.13
2022-08-12T14:10:23.144Z,101474.69
2022-08-12T14:12:53.807Z,101476.38
2022-08-12T14:15:00.535Z,101472.84
2022-08-12T14:17:09.900Z,101471.16
2022-08-12T14:19:22.670Z,101470.34
2022-08-12T14:21:30.164Z,101469.66
2022-08-12T14:24:04.038Z,101469.13
2022-08-12T14:26:12.259Z,101473.50
2022-08-12T14:28:18.198Z,101475.16
2022-08-12T14:30:29.383Z,101471.97
2022-08-12T14:32:36.229Z,101465.72
2022-08-12T14:34:39.943Z,101466.25
2022-08-12T14:36:47.727Z,101450.19
2022-08-12T14:38:54.314Z,101461.16
2022-08-12T14:40:59.910Z,101460.81
2022-08-12T14:43:06.133Z,101459.78
2022-08-12T14:45:11.183Z,101451.38
2022-08-12T14:47:17.852Z,101453.19
2022-08-12T14:50:00.979Z,101452.19
2022-08-12T14:52:56.576Z,101447.13
2022-08-12T14:57:00.181Z,101459.78
2022-08-12T14:59:23.329Z,101448.78
2022-08-12T15:01:43.042Z,101444.88
2022-08-12T15:03:56.912Z,101440.53
2022-08-12T15:06:06.041Z,101445.75
2022-08-12T15:08:29.556Z,101442.88
2022-08-12T15:10:37.191Z,101439.81
2022-08-12T15:12:40.992Z,101439.47
2022-08-12T15:14:45.728Z,101436.16
2022-08-12T15:16:49.968Z,101441.56
2022-08-12T15:18:59.233Z,101432.09
2022-08-12T15:21:06.220Z,101430.56
2022-08-12T15:23:18.047Z,101428.41
2022-08-12T15:25:25.129Z,101426.19
2022-08-12T15:28:04.500Z,101433.81
2022-08-12T15:29:52.494Z,101429.91
2022-08-12T15:32:01.933Z,101426.69
2022-08-12T15:34:09.518Z,101420.47
2022-08-12T15:36:19.517Z,101417.41
2022-08-12T15:38:40.381Z,101416.22
2022-08-12T15:40:48.257Z,101413.84
2022-08-12T15:42:52.498Z,101416.72
2022-08-12T15:44:56.473Z,101406.94
2022-08-12T15:47:00.091Z,101402.19
2022-08-12T15:49:04.074Z,101405.41
2022-08-12T15:51:58.832Z,101409.94
2022-08-12T15:54:32.245Z,101408.28
2022-08-12T15:56:31.976Z,101411.28
2022-08-12T15:58:38.525Z,101402.69
2022-08-12T16:00:42.770Z,101402.00
2022-08-12T16:02:50.328Z,101399.81
2022-08-12T16:04:55.011Z,101404.16
2022-08-12T16:07:08.795Z,101403.50
2022-08-12T16:09:15.807Z,101402.16
2022-08-12T16:11:25.673Z,101404.03
2022-08-12T16:13:34.417Z,101400.28
2022-08-12T16:15:42.226Z,101396.09
2022-08-12T16:18:19.105Z,101403.69
2022-08-12T16:20:11.778Z,101394.41
2022-08-12T16:22:17.808Z,101394.22
2022-08-12T16:24:21.907Z,101395.56
2022-08-12T16:26:27.521Z,101388.31
2022-08-12T16:28:36.981Z,101387.31
2022-08-12T16:30:41.466Z,101395.22
2022-08-12T16:32:53.937Z,101389.16
2022-08-12T16:34:58.065Z,101385.94
2022-08-12T16:37:04.601Z,101394.06
2022-08-12T16:39:12.755Z,101396.59
2022-08-12T16:41:19.478Z,101385.25
2022-08-12T16:43:25.703Z,101379.84
2022-08-12T16:45:32.247Z,101383.06
2022-08-12T16:47:58.558Z,101384.59
2022-08-12T16:50:03.071Z,101379.84
2022-08-12T16:52:12.647Z,101377.13
2022-08-12T16:54:26.622Z,101380.53
2022-08-12T16:56:39.715Z,101383.59
2022-08-12T16:58:54.743Z,101378.84
2022-08-12T17:01:01.924Z,101374.13
2022-08-12T17:03:06.372Z,101373.75
2022-08-12T17:05:16.141Z,101377.47
2022-08-12T17:07:21.471Z,101376.78
2022-08-12T17:09:27.486Z,101371.69
2022-08-12T17:11:44.022Z,101371.69
2022-08-12T17:13:53.414Z,101373.69
2022-08-12T17:16:06.175Z,101367.97
2022-08-12T17:18:42.118Z,101368.28
2022-08-12T17:20:42.743Z,101372.97
2022-08-12T17:22:57.644Z,101371.63
2022-08-12T17:25:14.496Z,101374.66
2022-08-12T17:27:20.865Z,101369.41
2022-08-12T17:30:01.238Z,101361.78
2022-08-12T17:32:00.646Z,101372.88
2022-08-12T17:34:07.130Z,101362.41
2022-08-12T17:36:21.163Z,101369.31
2022-08-12T17:38:33.842Z,101367.41
2022-08-12T17:40:40.362Z,101358.81
2022-08-12T17:42:47.577Z,101358.25
2022-08-12T17:44:52.854Z,101361.63
2022-08-12T17:46:57.997Z,101361.78
2022-08-12T17:49:06.912Z,101366.69
2022-08-12T17:51:24.727Z,101353.19
2022-08-12T17:53:29.386Z,101362.28
2022-08-12T17:55:54.562Z,101364.28
2022-08-12T17:58:00.244Z,101366.16
2022-08-12T18:00:06.493Z,101364.28
2022-08-12T18:02:13.669Z,101372.91
2022-08-12T18:04:21.646Z,101352.34
2022-08-12T18:06:27.920Z,101356.56
2022-08-12T18:08:33.699Z,101347.84
2022-08-12T18:10:55.358Z,101350.22
2022-08-12T18:13:01.547Z,101347.34
2022-08-12T18:15:08.783Z,101344.66
2022-08-12T18:17:14.158Z,101348.50
2022-08-12T18:19:18.068Z,101337.72
2022-08-12T18:21:21.892Z,101343.78
2022-08-12T18:23:27.251Z,101346.31
2022-08-12T18:26:16.642Z,101341.22
2022-08-12T18:28:19.434Z,101345.41
2022-08-12T18:30:33.605Z,101335.63
2022-08-12T18:32:58.331Z,101339.84
2022-08-12T18:35:11.011Z,101354.56
2022-08-12T18:37:40.907Z,101349.63
2022-08-12T18:39:58.119Z,101345.06
2022-08-12T18:42:02.226Z,101347.38
2022-08-12T18:44:10.151Z,101340.22
2022-08-12T18:46:17.715Z,101339.16
2022-08-12T18:48:24.554Z,101342.66
2022-08-12T18:50:49.011Z,101337.75
2022-08-12T18:52:54.603Z,101338.91
2022-08-12T18:55:06.047Z,101338.91
2022-08-12T18:57:15.518Z,101343.75
2022-08-12T19:00:01.334Z,101343.09
2022-08-12T19:02:20.629Z,101347.38
2022-08-12T19:04:17.856Z,101343.66
2022-08-12T19:06:21.477Z,101348.53
2022-08-12T19:08:31.574Z,101350.00
2022-08-12T19:10:37.065Z,101348.78
2022-08-12T19:13:01.025Z,101350.78
2022-08-12T19:15:08.510Z,101356.03
2022-08-12T19:17:15.187Z,101349.97
2022-08-12T19:19:20.635Z,101351.06
2022-08-12T19:21:25.350Z,101358.75
2022-08-12T19:23:34.907Z,101353.13
2022-08-12T19:25:59.634Z,101349.53
2022-08-12T19:28:06.781Z,101354.53
2022-08-12T19:30:33.387Z,101351.13
2022-08-12T19:32:49.382Z,101362.53
2022-08-12T19:36:06.867Z,101358.44
2022-08-12T19:37:27.565Z,101357.22
2022-08-12T19:40:09.228Z,101358.34
2022-08-12T19:42:07.099Z,101368.41
2022-08-12T19:44:16.425Z,101365.31
2022-08-12T19:46:27.706Z,101366.34
2022-08-12T19:48:32.874Z,101363.81
2022-08-12T19:50:39.250Z,101363.56
2022-08-12T19:52:46.334Z,101366.19
2022-08-12T19:54:56.379Z,101364.06
2022-08-12T19:57:01.659Z,101360.16
2022-08-12T19:59:23.098Z,101370.66
2022-08-12T20:01:28.640Z,101368.28
2022-08-12T20:03:57.578Z,101365.88
2022-08-12T20:06:09.137Z,101378.34
2022-08-12T20:08:31.668Z,101374.34
2022-08-12T20:10:43.879Z,101376.06
2022-08-12T20:13:17.635Z,101383.13
2022-08-12T20:15:12.103Z,101371.50
2022-08-12T20:17:23.518Z,101372.69
2022-08-12T20:19:52.996Z,101367.88
2022-08-12T20:21:52.495Z,101374.56
2022-08-12T20:24:00.761Z,101369.75
2022-08-12T20:26:08.821Z,101366.69
2022-08-12T20:28:13.984Z,101372.22
2022-08-12T20:30:17.861Z,101367.69
2022-08-12T20:32:29.667Z,101372.06
2022-08-12T20:34:33.804Z,101368.66
2022-08-12T20:36:41.134Z,101360.59
2022-08-12T20:38:46.877Z,101368.50
2022-08-12T20:40:51.234Z,101373.06
2022-08-12T20:42:55.855Z,101375.03
2022-08-12T20:44:59.761Z,101370.81
2022-08-12T20:47:18.633Z,101375.63
2022-08-12T20:49:25.874Z,101374.22
2022-08-12T20:51:55.273Z,101371.09
2022-08-12T20:54:00.669Z,101377.78
2022-08-12T20:56:19.630Z,101372.84
2022-08-12T20:58:23.608Z,101382.19
2022-08-12T21:00:28.425Z,101381.63
2022-08-12T21:02:32.702Z,101379.41
2022-08-12T21:04:55.594Z,101378.53
2022-08-12T21:07:04.696Z,101386.06
2022-08-12T21:09:12.448Z,101375.72
2022-08-12T21:11:22.443Z,101377.72
2022-08-12T21:13:38.962Z,101377.97
2022-08-12T21:15:53.625Z,101383.81
2022-08-12T21:18:11.903Z,101384.25
2022-08-12T21:20:26.453Z,101387.34
2022-08-12T21:22:33.528Z,101379.72
2022-08-12T21:24:36.961Z,101386.25
2022-08-12T21:26:53.387Z,101380.28
2022-08-12T21:29:01.113Z,101383.28
2022-08-12T21:32:34.591Z,101373.78
2022-08-12T21:33:31.081Z,101383.97
2022-08-12T21:35:40.075Z,101382.44
2022-08-12T21:37:53.062Z,101384.56
2022-08-12T21:39:57.410Z,101375.91
2022-08-12T21:42:02.475Z,101378.19
2022-08-12T21:44:24.485Z,101376.63
2022-08-12T21:46:38.907Z,101368.69
2022-08-12T21:48:42.734Z,101365.28
2022-08-12T21:50:53.910Z,101370.81
2022-08-12T21:52:59.930Z,101366.56
2022-08-12T21:55:17.732Z,101361.34
2022-08-12T21:57:23.823Z,101358.94
2022-08-12T21:59:28.034Z,101363.59
2022-08-12T22:01:35.763Z,101367.41
2022-08-12T22:04:11.442Z,101365.84
2022-08-12T22:06:31.286Z,101363.28
2022-08-12T22:08:43.934Z,101363.72
2022-08-12T22:10:52.301Z,101360.47
2022-08-12T22:12:57.874Z,101358.22
2022-08-12T22:15:06.670Z,101357.47
2022-08-12T22:17:11.445Z,101357.63
2022-08-12T22:19:23.892Z,101353.13
2022-08-12T22:21:29.093Z,101350.56
2022-08-12T22:23:51.811Z,101349.84
2022-08-12T22:26:00.001Z,101352.84
2022-08-12T22:28:24.489Z,101350.16
2022-08-12T22:30:46.328Z,101357.34
2022-08-12T22:32:51.539Z,101350.16
2022-08-12T22:35:22.276Z,101351.81
2022-08-12T22:37:29.344Z,101349.13
2022-08-12T22:39:33.735Z,101353.38
2022-08-12T22:41:56.977Z,101349.72
2022-08-12T22:44:19.313Z,101355.22
2022-08-12T22:46:53.138Z,101351.41
2022-08-12T22:48:57.787Z,101349.13
2022-08-12T22:51:01.385Z,101353.06
2022-08-12T22:53:19.326Z,101349.09
2022-08-12T22:55:59.285Z,101349.41
2022-08-12T22:57:53.330Z,101349.69
2022-08-12T22:59:58.777Z,101338.34
2022-08-12T23:02:02.549Z,101339.47
2022-08-12T23:04:08.039Z,101344.00
2022-08-12T23:06:14.403Z,101337.78
2022-08-12T23:08:19.373Z,101338.88
2022-08-12T23:10:24.666Z,101334.66
2022-08-12T23:12:46.825Z,101338.59
2022-08-12T23:14:52.656Z,101330.97
2022-08-12T23:16:57.571Z,101333.31
2022-08-12T23:19:10.666Z,101333.59
2022-08-12T23:21:23.413Z,101332.59
2022-08-12T23:23:29.993Z,101328.06
2022-08-12T23:25:55.385Z,101330.91
2022-08-12T23:28:29.383Z,101332.00
2022-08-12T23:30:34.957Z,101333.41
2022-08-12T23:32:42.717Z,101323.81
2022-08-12T23:34:50.570Z,101319.28
2022-08-12T23:36:54.801Z,101323.81
2022-08-12T23:39:02.003Z,101323.22
2022-08-12T23:41:06.934Z,101319.84
2022-08-12T23:43:12.412Z,101321.78
2022-08-12T23:45:20.568Z,101320.34
2022-08-12T23:47:38.392Z,101321.38
2022-08-12T23:49:57.329Z,101318.69
2022-08-12T23:52:07.445Z,101321.47
2022-08-12T23:54:32.742Z,101317.25
2022-08-12T23:56:39.953Z,101320.31
2022-08-12T23:58:52.871Z,101324.25
